sensor_id;sensor_type;location;lat;lon;timestamp;pressure;altitude;pressure_sealevel;temperature;humidity
57024;BME280;42916;54.346;18.562;2023-06-14T00:01:53;100709.70;;;14.11;66.25
57024;BME280;42916;54.346;18.562;2023-06-14T00:04:19;100709.09;;;14.11;66.12
57024;BME280;42916;54.346;18.562;2023-06-14T00:06:46;100707.41;;;14.14;66.49
57024;BME280;42916;54.346;18.562;2023-06-14T00:09:12;100703.03;;;14.16;66.57
57024;BME280;42916;54.346;18.562;2023-06-14T00:11:40;100701.23;;;14.18;66.62
57024;BME280;42916;54.346;18.562;2023-06-14T00:14:06;100699.20;;;14.19;66.65
57024;BME280;42916;54.346;18.562;2023-06-14T00:16:33;100699.86;;;14.18;66.82
57024;BME280;42916;54.346;18.562;2023-06-14T00:19:01;100700.18;;;14.14;66.98
57024;BME280;42916;54.346;18.562;2023-06-14T00:21:31;100696.29;;;14.09;67.49
57024;BME280;42916;54.346;18.562;2023-06-14T00:23:58;100697.71;;;14.06;67.35
57024;BME280;42916;54.346;18.562;2023-06-14T00:26:24;100693.77;;;14.05;68.10
57024;BME280;42916;54.346;18.562;2023-06-14T00:28:53;100689.61;;;14.05;68.58
57024;BME280;42916;54.346;18.562;2023-06-14T00:31:19;100689.73;;;14.07;68.77
57024;BME280;42916;54.346;18.562;2023-06-14T00:33:46;100689.73;;;14.10;69.30
57024;BME280;42916;54.346;18.562;2023-06-14T00:36:12;100688.54;;;14.13;69.53
57024;BME280;42916;54.346;18.562;2023-06-14T00:38:38;100688.64;;;14.16;70.07
57024;BME280;42916;54.346;18.562;2023-06-14T00:41:04;100686.02;;;14.16;70.25
57024;BME280;42916;54.346;18.562;2023-06-14T00:43:30;100686.95;;;14.16;70.28
57024;BME280;42916;54.346;18.562;2023-06-14T00:45:57;100685.63;;;14.15;70.10
57024;BME280;42916;54.346;18.562;2023-06-14T00:48:24;100683.23;;;14.16;70.38
57024;BME280;42916;54.346;18.562;2023-06-14T00:50:51;100686.23;;;14.17;70.69
57024;BME280;42916;54.346;18.562;2023-06-14T00:53:19;100684.31;;;14.20;70.79
57024;BME280;42916;54.346;18.562;2023-06-14T00:55:46;100682.52;;;14.23;70.77
57024;BME280;42916;54.346;18.562;2023-06-14T00:58:13;100683.62;;;14.26;70.86
57024;BME280;42916;54.346;18.562;2023-06-14T01:00:41;100682.96;;;14.30;71.10
57024;BME280;42916;54.346;18.562;2023-06-14T01:03:08;100682.35;;;14.31;71.09
57024;BME280;42916;54.346;18.562;2023-06-14T01:05:38;100682.57;;;14.32;71.43
57024;BME280;42916;54.346;18.562;2023-06-14T01:10:57;100683.61;;;14.34;71.46
57024;BME280;42916;54.346;18.562;2023-06-14T01:13:38;100684.00;;;14.34;71.70
57024;BME280;42916;54.346;18.562;2023-06-14T01:16:06;100681.59;;;14.34;71.74
57024;BME280;42916;54.346;18.562;2023-06-14T01:18:33;100681.39;;;14.35;71.72
57024;BME280;42916;54.346;18.562;2023-06-14T01:21:01;100679.83;;;14.37;71.89
57024;BME280;42916;54.346;18.562;2023-06-14T01:23:32;100681.54;;;14.39;72.21
57024;BME280;42916;54.346;18.562;2023-06-14T01:25:59;100675.13;;;14.40;72.31
57024;BME280;42916;54.346;18.562;2023-06-14T01:28:31;100674.19;;;14.41;72.39
57024;BME280;42916;54.346;18.562;2023-06-14T01:31:01;100669.71;;;14.39;72.57
57024;BME280;42916;54.346;18.562;2023-06-14T01:33:33;100674.80;;;14.38;72.67
57024;BME280;42916;54.346;18.562;2023-06-14T01:36:02;100671.36;;;14.35;72.70
57024;BME280;42916;54.346;18.562;2023-06-14T01:38:30;100670.31;;;14.32;72.55
57024;BME280;42916;54.346;18.562;2023-06-14T01:40:58;100666.20;;;14.31;72.75
57024;BME280;42916;54.346;18.562;2023-06-14T01:43:26;100665.05;;;14.29;72.92
57024;BME280;42916;54.346;18.562;2023-06-14T01:45:53;100664.45;;;14.27;73.23
57024;BME280;42916;54.346;18.562;2023-06-14T01:48:20;100664.67;;;14.26;73.25
57024;BME280;42916;54.346;18.562;2023-06-14T01:50:52;100665.29;;;14.24;73.55
57024;BME280;42916;54.346;18.562;2023-06-14T01:53:18;100667.30;;;14.22;73.82
57024;BME280;42916;54.346;18.562;2023-06-14T01:55:44;100667.64;;;14.20;73.88
57024;BME280;42916;54.346;18.562;2023-06-14T01:58:11;100670.20;;;14.18;74.00
57024;BME280;42916;54.346;18.562;2023-06-14T02:00:37;100670.25;;;14.16;73.95
57024;BME280;42916;54.346;18.562;2023-06-14T02:03:03;100669.27;;;14.17;74.07
57024;BME280;42916;54.346;18.562;2023-06-14T02:05:30;100664.02;;;14.18;74.29
57024;BME280;42916;54.346;18.562;2023-06-14T02:07:56;100664.56;;;14.19;74.38
57024;BME280;42916;54.346;18.562;2023-06-14T02:10:22;100663.52;;;14.19;74.95
57024;BME280;42916;54.346;18.562;2023-06-14T02:12:48;100663.74;;;14.16;74.92
57024;BME280;42916;54.346;18.562;2023-06-14T02:15:15;100661.28;;;14.17;75.22
57024;BME280;42916;54.346;18.562;2023-06-14T02:17:46;100662.86;;;14.17;75.10
57024;BME280;42916;54.346;18.562;2023-06-14T02:20:13;100658.39;;;14.18;75.28
57024;BME280;42916;54.346;18.562;2023-06-14T02:22:40;100657.13;;;14.19;75.59
57024;BME280;42916;54.346;18.562;2023-06-14T02:25:07;100661.29;;;14.22;75.47
57024;BME280;42916;54.346;18.562;2023-06-14T02:27:34;100665.89;;;14.25;75.67
57024;BME280;42916;54.346;18.562;2023-06-14T02:30:01;100663.14;;;14.28;75.94
57024;BME280;42916;54.346;18.562;2023-06-14T02:32:27;100669.02;;;14.30;76.13
57024;BME280;42916;54.346;18.562;2023-06-14T02:34:54;100666.04;;;14.33;76.16
57024;BME280;42916;54.346;18.562;2023-06-14T02:37:20;100669.71;;;14.35;76.23
57024;BME280;42916;54.346;18.562;2023-06-14T02:39:46;100669.34;;;14.37;76.40
57024;BME280;42916;54.346;18.562;2023-06-14T02:42:13;100666.48;;;14.38;76.38
57024;BME280;42916;54.346;18.562;2023-06-14T02:44:39;100667.35;;;14.40;76.64
57024;BME280;42916;54.346;18.562;2023-06-14T02:47:05;100669.88;;;14.42;76.99
57024;BME280;42916;54.346;18.562;2023-06-14T02:49:32;100667.30;;;14.44;77.21
57024;BME280;42916;54.346;18.562;2023-06-14T02:51:58;100664.84;;;14.47;77.41
57024;BME280;42916;54.346;18.562;2023-06-14T02:54:24;100663.73;;;14.49;77.46
57024;BME280;42916;54.346;18.562;2023-06-14T02:56:51;100665.99;;;14.50;77.82
57024;BME280;42916;54.346;18.562;2023-06-14T02:59:17;100663.14;;;14.53;77.70
57024;BME280;42916;54.346;18.562;2023-06-14T03:01:43;100663.52;;;14.55;77.73
57024;BME280;42916;54.346;18.562;2023-06-14T03:04:12;100662.28;;;14.58;78.03
57024;BME280;42916;54.346;18.562;2023-06-14T03:06:39;100662.40;;;14.62;78.25
57024;BME280;42916;54.346;18.562;2023-06-14T03:09:05;100661.84;;;14.66;78.33
57024;BME280;42916;54.346;18.562;2023-06-14T03:11:32;100662.38;;;14.70;78.86
57024;BME280;42916;54.346;18.562;2023-06-14T03:14:00;100664.84;;;14.72;78.94
57024;BME280;42916;54.346;18.562;2023-06-14T03:16:26;100661.05;;;14.73;78.97
57024;BME280;42916;54.346;18.562;2023-06-14T03:18:55;100665.98;;;14.78;79.21
57024;BME280;42916;54.346;18.562;2023-06-14T03:21:23;100664.61;;;14.82;78.91
57024;BME280;42916;54.346;18.562;2023-06-14T03:23:50;100667.05;;;14.86;78.85
57024;BME280;42916;54.346;18.562;2023-06-14T03:26:17;100667.31;;;14.92;78.77
57024;BME280;42916;54.346;18.562;2023-06-14T03:28:47;100669.23;;;14.98;78.98
57024;BME280;42916;54.346;18.562;2023-06-14T03:31:17;100671.17;;;15.03;78.93
57024;BME280;42916;54.346;18.562;2023-06-14T03:33:45;100678.45;;;15.08;78.91
57024;BME280;42916;54.346;18.562;2023-06-14T03:36:12;100677.79;;;15.09;78.97
57024;BME280;42916;54.346;18.562;2023-06-14T03:38:38;100678.61;;;15.10;79.07
57024;BME280;42916;54.346;18.562;2023-06-14T03:41:04;100677.73;;;15.12;79.24
57024;BME280;42916;54.346;18.562;2023-06-14T03:43:32;100674.65;;;15.15;78.98
57024;BME280;42916;54.346;18.562;2023-06-14T03:45:59;100676.60;;;15.20;79.21
57024;BME280;42916;54.346;18.562;2023-06-14T03:48:26;100677.85;;;15.24;79.01
57024;BME280;42916;54.346;18.562;2023-06-14T03:50:53;100681.29;;;15.28;78.98
57024;BME280;42916;54.346;18.562;2023-06-14T03:53:21;100678.48;;;15.31;79.00
57024;BME280;42916;54.346;18.562;2023-06-14T03:55:50;100682.20;;;15.33;78.85
57024;BME280;42916;54.346;18.562;2023-06-14T03:58:18;100680.49;;;15.34;78.79
57024;BME280;42916;54.346;18.562;2023-06-14T04:00:45;100682.73;;;15.37;78.99
57024;BME280;42916;54.346;18.562;2023-06-14T04:03:12;100688.19;;;15.43;78.79
57024;BME280;42916;54.346;18.562;2023-06-14T04:05:39;100690.75;;;15.50;78.53
57024;BME280;42916;54.346;18.562;2023-06-14T04:08:08;100687.26;;;15.56;78.51
57024;BME280;42916;54.346;18.562;2023-06-14T04:10:35;100689.88;;;15.59;78.49
57024;BME280;42916;54.346;18.562;2023-06-14T04:13:02;100692.09;;;15.57;78.42
57024;BME280;42916;54.346;18.562;2023-06-14T04:15:28;100690.34;;;15.55;78.37
57024;BME280;42916;54.346;18.562;2023-06-14T04:17:56;100690.13;;;15.53;78.41
57024;BME280;42916;54.346;18.562;2023-06-14T04:20:24;100691.02;;;15.52;78.58
57024;BME280;42916;54.346;18.562;2023-06-14T04:22:51;100688.15;;;15.51;78.51
57024;BME280;42916;54.346;18.562;2023-06-14T04:25:18;100689.98;;;15.49;78.49
57024;BME280;42916;54.346;18.562;2023-06-14T04:27:46;100688.77;;;15.49;78.33
57024;BME280;42916;54.346;18.562;2023-06-14T04:30:13;100684.23;;;15.49;78.43
57024;BME280;42916;54.346;18.562;2023-06-14T04:32:45;100685.21;;;15.49;78.80
57024;BME280;42916;54.346;18.562;2023-06-14T04:35:12;100685.52;;;15.51;78.86
57024;BME280;42916;54.346;18.562;2023-06-14T04:37:41;100686.51;;;15.53;78.57
57024;BME280;42916;54.346;18.562;2023-06-14T04:40:10;100690.52;;;15.53;78.81
57024;BME280;42916;54.346;18.562;2023-06-14T04:42:37;100693.23;;;15.55;78.81
57024;BME280;42916;54.346;18.562;2023-06-14T04:45:07;100695.58;;;15.60;78.73
57024;BME280;42916;54.346;18.562;2023-06-14T04:47:33;100694.73;;;15.65;78.79
57024;BME280;42916;54.346;18.562;2023-06-14T04:50:00;100691.09;;;15.67;78.78
57024;BME280;42916;54.346;18.562;2023-06-14T04:52:30;100692.56;;;15.70;78.60
57024;BME280;42916;54.346;18.562;2023-06-14T04:54:57;100690.96;;;15.72;78.83
57024;BME280;42916;54.346;18.562;2023-06-14T04:57:24;100688.83;;;15.73;78.76
57024;BME280;42916;54.346;18.562;2023-06-14T04:59:52;100689.48;;;15.74;78.94
57024;BME280;42916;54.346;18.562;2023-06-14T05:02:24;100690.58;;;15.77;78.80
57024;BME280;42916;54.346;18.562;2023-06-14T05:04:53;100692.14;;;15.83;78.89
57024;BME280;42916;54.346;18.562;2023-06-14T05:07:19;100694.39;;;15.93;78.88
57024;BME280;42916;54.346;18.562;2023-06-14T05:09:47;100694.64;;;16.03;78.95
57024;BME280;42916;54.346;18.562;2023-06-14T05:12:14;100693.42;;;16.13;78.81
57024;BME280;42916;54.346;18.562;2023-06-14T05:14:44;100692.98;;;16.21;78.70
57024;BME280;42916;54.346;18.562;2023-06-14T05:17:11;100693.98;;;16.28;78.42
57024;BME280;42916;54.346;18.562;2023-06-14T05:19:37;100697.06;;;16.34;78.21
57024;BME280;42916;54.346;18.562;2023-06-14T05:22:03;100690.95;;;16.42;78.09
57024;BME280;42916;54.346;18.562;2023-06-14T05:24:30;100687.88;;;16.49;77.69
57024;BME280;42916;54.346;18.562;2023-06-14T05:26:56;100690.63;;;16.60;77.38
57024;BME280;42916;54.346;18.562;2023-06-14T05:29:22;100692.24;;;16.69;77.11
57024;BME280;42916;54.346;18.562;2023-06-14T05:31:48;100692.89;;;16.77;76.83
57024;BME280;42916;54.346;18.562;2023-06-14T05:34:15;100689.65;;;16.84;76.28
57024;BME280;42916;54.346;18.562;2023-06-14T05:36:41;100692.85;;;16.91;76.10
57024;BME280;42916;54.346;18.562;2023-06-14T05:39:07;100691.11;;;16.98;75.69
57024;BME280;42916;54.346;18.562;2023-06-14T05:41:34;100693.44;;;17.02;75.19
57024;BME280;42916;54.346;18.562;2023-06-14T05:44:01;100693.77;;;17.06;74.77
57024;BME280;42916;54.346;18.562;2023-06-14T05:46:27;100693.66;;;17.11;74.36
57024;BME280;42916;54.346;18.562;2023-06-14T05:48:54;100701.22;;;17.19;73.86
57024;BME280;42916;54.346;18.562;2023-06-14T05:51:21;100705.27;;;17.26;73.49
57024;BME280;42916;54.346;18.562;2023-06-14T05:53:48;100707.95;;;17.36;73.26
57024;BME280;42916;54.346;18.562;2023-06-14T05:56:15;100704.37;;;17.46;73.01
57024;BME280;42916;54.346;18.562;2023-06-14T05:58:41;100708.69;;;17.57;72.32
57024;BME280;42916;54.346;18.562;2023-06-14T06:01:07;100710.06;;;17.65;71.82
57024;BME280;42916;54.346;18.562;2023-06-14T06:03:33;100708.95;;;17.74;71.04
57024;BME280;42916;54.346;18.562;2023-06-14T06:06:00;100708.57;;;17.83;70.43
57024;BME280;42916;54.346;18.562;2023-06-14T06:08:27;100710.09;;;17.94;69.28
57024;BME280;42916;54.346;18.562;2023-06-14T06:10:53;100713.59;;;18.03;68.77
57024;BME280;42916;54.346;18.562;2023-06-14T06:13:19;100715.60;;;18.16;68.65
57024;BME280;42916;54.346;18.562;2023-06-14T06:15:45;100718.46;;;18.27;68.15
57024;BME280;42916;54.346;18.562;2023-06-14T06:18:12;100717.42;;;18.37;67.49
57024;BME280;42916;54.346;18.562;2023-06-14T06:20:38;100717.48;;;18.51;67.00
57024;BME280;42916;54.346;18.562;2023-06-14T06:23:04;100722.02;;;18.66;66.67
57024;BME280;42916;54.346;18.562;2023-06-14T06:25:30;100723.09;;;18.75;65.86
57024;BME280;42916;54.346;18.562;2023-06-14T06:27:58;100731.25;;;18.80;65.12
57024;BME280;42916;54.346;18.562;2023-06-14T06:30:24;100726.45;;;18.82;64.90
57024;BME280;42916;54.346;18.562;2023-06-14T06:32:51;100726.81;;;18.87;64.36
57024;BME280;42916;54.346;18.562;2023-06-14T06:35:17;100724.30;;;18.89;64.18
57024;BME280;42916;54.346;18.562;2023-06-14T06:37:43;100730.16;;;18.91;64.15
57024;BME280;42916;54.346;18.562;2023-06-14T06:40:10;100731.13;;;18.99;64.19
57024;BME280;42916;54.346;18.562;2023-06-14T06:42:36;100730.33;;;19.09;63.84
57024;BME280;42916;54.346;18.562;2023-06-14T06:45:04;100732.02;;;19.20;63.41
57024;BME280;42916;54.346;18.562;2023-06-14T06:47:31;100734.20;;;19.29;62.76
57024;BME280;42916;54.346;18.562;2023-06-14T06:49:57;100729.69;;;19.36;62.15
57024;BME280;42916;54.346;18.562;2023-06-14T06:52:23;100734.74;;;19.37;61.35
57024;BME280;42916;54.346;18.562;2023-06-14T06:54:50;100733.57;;;19.38;60.85
57024;BME280;42916;54.346;18.562;2023-06-14T06:57:21;100736.27;;;19.43;60.39
57024;BME280;42916;54.346;18.562;2023-06-14T06:59:49;100736.33;;;19.47;60.29
57024;BME280;42916;54.346;18.562;2023-06-14T07:02:16;100738.00;;;19.54;60.30
57024;BME280;42916;54.346;18.562;2023-06-14T07:04:42;100737.15;;;19.63;59.67
57024;BME280;42916;54.346;18.562;2023-06-14T07:07:08;100738.66;;;19.67;58.87
57024;BME280;42916;54.346;18.562;2023-06-14T07:09:36;100738.26;;;19.66;58.18
57024;BME280;42916;54.346;18.562;2023-06-14T07:12:02;100738.77;;;19.62;58.04
57024;BME280;42916;54.346;18.562;2023-06-14T07:14:28;100737.50;;;19.62;58.18
57024;BME280;42916;54.346;18.562;2023-06-14T07:16:56;100740.34;;;19.63;57.91
57024;BME280;42916;54.346;18.562;2023-06-14T07:19:22;100742.96;;;19.63;57.54
57024;BME280;42916;54.346;18.562;2023-06-14T07:21:48;100742.98;;;19.66;57.69
57024;BME280;42916;54.346;18.562;2023-06-14T07:24:14;100745.07;;;19.79;57.35
57024;BME280;42916;54.346;18.562;2023-06-14T07:26:41;100748.38;;;19.87;56.38
57024;BME280;42916;54.346;18.562;2023-06-14T07:29:07;100751.46;;;19.90;55.38
57024;BME280;42916;54.346;18.562;2023-06-14T07:31:33;100749.95;;;19.92;55.71
57024;BME280;42916;54.346;18.562;2023-06-14T07:33:59;100752.90;;;20.05;55.63
57024;BME280;42916;54.346;18.562;2023-06-14T07:36:25;100754.14;;;20.13;54.47
57024;BME280;42916;54.346;18.562;2023-06-14T07:38:52;100757.27;;;20.20;54.19
57024;BME280;42916;54.346;18.562;2023-06-14T07:41:18;100750.54;;;20.28;54.00
57024;BME280;42916;54.346;18.562;2023-06-14T07:43:44;100756.02;;;20.35;53.77
57024;BME280;42916;54.346;18.562;2023-06-14T07:46:10;100755.20;;;20.34;52.63
57024;BME280;42916;54.346;18.562;2023-06-14T07:48:37;100753.56;;;20.36;52.85
57024;BME280;42916;54.346;18.562;2023-06-14T07:51:03;100757.23;;;20.42;52.60
57024;BME280;42916;54.346;18.562;2023-06-14T07:53:30;100756.66;;;20.45;51.88
57024;BME280;42916;54.346;18.562;2023-06-14T07:55:58;100756.02;;;20.44;51.40
57024;BME280;42916;54.346;18.562;2023-06-14T07:58:26;100755.73;;;20.47;51.72
57024;BME280;42916;54.346;18.562;2023-06-14T08:00:52;100756.61;;;20.62;51.74
57024;BME280;42916;54.346;18.562;2023-06-14T08:03:18;100754.60;;;20.81;51.80
57024;BME280;42916;54.346;18.562;2023-06-14T08:05:45;100752.96;;;21.03;51.32
57024;BME280;42916;54.346;18.562;2023-06-14T08:08:11;100754.27;;;21.26;51.00
57024;BME280;42916;54.346;18.562;2023-06-14T08:10:38;100758.52;;;21.48;50.87
57024;BME280;42916;54.346;18.562;2023-06-14T08:13:04;100761.08;;;21.69;50.26
57024;BME280;42916;54.346;18.562;2023-06-14T08:15:31;100756.75;;;21.78;49.11
57024;BME280;42916;54.346;18.562;2023-06-14T08:17:57;100755.05;;;21.80;48.42
57024;BME280;42916;54.346;18.562;2023-06-14T08:20:25;100758.16;;;21.79;47.85
57024;BME280;42916;54.346;18.562;2023-06-14T08:22:51;100758.21;;;21.82;47.93
57024;BME280;42916;54.346;18.562;2023-06-14T08:25:21;100758.73;;;21.85;47.03
57024;BME280;42916;54.346;18.562;2023-06-14T08:27:47;100765.05;;;21.85;46.98
57024;BME280;42916;54.346;18.562;2023-06-14T08:30:13;100765.08;;;21.84;46.72
57024;BME280;42916;54.346;18.562;2023-06-14T08:32:39;100757.30;;;21.93;47.02
57024;BME280;42916;54.346;18.562;2023-06-14T08:35:06;100763.33;;;22.08;47.12
57024;BME280;42916;54.346;18.562;2023-06-14T08:37:33;100764.40;;;22.04;45.08
57024;BME280;42916;54.346;18.562;2023-06-14T08:40:01;100767.52;;;21.91;45.40
57024;BME280;42916;54.346;18.562;2023-06-14T08:42:32;100770.10;;;21.84;45.59
57024;BME280;42916;54.346;18.562;2023-06-14T08:44:58;100766.94;;;21.81;45.18
57024;BME280;42916;54.346;18.562;2023-06-14T08:47:26;100771.73;;;21.80;45.53
57024;BME280;42916;54.346;18.562;2023-06-14T08:49:53;100773.22;;;21.84;45.29
57024;BME280;42916;54.346;18.562;2023-06-14T08:52:24;100769.05;;;21.92;45.37
57024;BME280;42916;54.346;18.562;2023-06-14T08:54:56;100762.83;;;21.99;45.07
57024;BME280;42916;54.346;18.562;2023-06-14T08:57:23;100766.11;;;22.10;45.27
57024;BME280;42916;54.346;18.562;2023-06-14T08:59:51;100764.73;;;22.13;44.99
57024;BME280;42916;54.346;18.562;2023-06-14T09:02:19;100764.83;;;22.10;44.78
57024;BME280;42916;54.346;18.562;2023-06-14T09:04:45;100764.77;;;22.16;45.01
57024;BME280;42916;54.346;18.562;2023-06-14T09:07:11;100764.41;;;22.32;44.99
57024;BME280;42916;54.346;18.562;2023-06-14T09:09:40;100767.13;;;22.42;44.70
57024;BME280;42916;54.346;18.562;2023-06-14T09:12:09;100767.38;;;22.43;43.94
57024;BME280;42916;54.346;18.562;2023-06-14T09:14:37;100764.48;;;22.38;43.73
57024;BME280;42916;54.346;18.562;2023-06-14T09:17:06;100761.88;;;22.40;43.88
57024;BME280;42916;54.346;18.562;2023-06-14T09:19:33;100758.51;;;22.53;44.20
57024;BME280;42916;54.346;18.562;2023-06-14T09:21:59;100761.10;;;22.64;43.91
57024;BME280;42916;54.346;18.562;2023-06-14T09:24:26;100759.16;;;22.72;43.64
57024;BME280;42916;54.346;18.562;2023-06-14T09:26:53;100760.77;;;22.85;43.73
57024;BME280;42916;54.346;18.562;2023-06-14T09:29:19;100764.98;;;23.07;43.74
57024;BME280;42916;54.346;18.562;2023-06-14T09:31:46;100760.48;;;23.12;43.26
57024;BME280;42916;54.346;18.562;2023-06-14T09:34:13;100758.53;;;22.98;43.22
57024;BME280;42916;54.346;18.562;2023-06-14T09:36:39;100763.84;;;22.83;43.29
57024;BME280;42916;54.346;18.562;2023-06-14T09:39:08;100759.63;;;22.70;43.22
57024;BME280;42916;54.346;18.562;2023-06-14T09:41:39;100760.63;;;22.60;42.83
57024;BME280;42916;54.346;18.562;2023-06-14T09:44:10;100758.63;;;22.60;42.36
57024;BME280;42916;54.346;18.562;2023-06-14T09:46:37;100754.05;;;22.62;42.55
57024;BME280;42916;54.346;18.562;2023-06-14T09:49:04;100752.16;;;22.73;42.59
57024;BME280;42916;54.346;18.562;2023-06-14T09:51:31;100754.81;;;22.96;42.84
57024;BME280;42916;54.346;18.562;2023-06-14T09:54:02;100754.83;;;23.21;42.19
57024;BME280;42916;54.346;18.562;2023-06-14T09:56:34;100756.98;;;23.28;40.77
57024;BME280;42916;54.346;18.562;2023-06-14T09:59:04;100756.08;;;23.25;40.93
57024;BME280;42916;54.346;18.562;2023-06-14T10:01:31;100751.02;;;23.16;40.49
57024;BME280;42916;54.346;18.562;2023-06-14T10:04:06;100746.96;;;23.10;41.21
57024;BME280;42916;54.346;18.562;2023-06-14T10:06:36;100753.30;;;23.27;41.60
57024;BME280;42916;54.346;18.562;2023-06-14T10:09:04;100749.73;;;23.49;41.41
57024;BME280;42916;54.346;18.562;2023-06-14T10:11:34;100754.20;;;23.84;41.37
57024;BME280;42916;54.346;18.562;2023-06-14T10:14:02;100747.27;;;24.06;40.76
57024;BME280;42916;54.346;18.562;2023-06-14T10:19:23;100745.34;;;23.95;40.54
57024;BME280;42916;54.346;18.562;2023-06-14T10:22:29;100748.77;;;24.12;40.63
57024;BME280;42916;54.346;18.562;2023-06-14T10:24:56;100747.92;;;24.21;40.33
57024;BME280;42916;54.346;18.562;2023-06-14T10:27:22;100748.30;;;24.12;40.15
57024;BME280;42916;54.346;18.562;2023-06-14T10:32:20;100745.31;;;24.07;40.01
57024;BME280;42916;54.346;18.562;2023-06-14T10:34:53;100743.55;;;24.17;40.36
57024;BME280;42916;54.346;18.562;2023-06-14T10:37:19;100743.77;;;24.45;39.94
57024;BME280;42916;54.346;18.562;2023-06-14T10:39:45;100738.73;;;24.61;39.89
57024;BME280;42916;54.346;18.562;2023-06-14T10:42:12;100736.29;;;24.67;39.37
57024;BME280;42916;54.346;18.562;2023-06-14T10:44:45;100737.18;;;24.79;39.41
57024;BME280;42916;54.346;18.562;2023-06-14T10:50:02;100731.10;;;25.36;38.40
57024;BME280;42916;54.346;18.562;2023-06-14T10:52:31;100735.55;;;25.46;38.26
57024;BME280;42916;54.346;18.562;2023-06-14T10:57:42;100737.42;;;25.78;37.31
57024;BME280;42916;54.346;18.562;2023-06-14T11:00:10;100735.91;;;25.85;36.40
57024;BME280;42916;54.346;18.562;2023-06-14T11:11:06;100733.31;;;25.99;35.53
57024;BME280;42916;54.346;18.562;2023-06-14T11:13:32;100738.41;;;25.71;35.47
57024;BME280;42916;54.346;18.562;2023-06-14T11:15:59;100733.73;;;25.66;35.53
57024;BME280;42916;54.346;18.562;2023-06-14T11:18:25;100735.27;;;25.87;36.02
57024;BME280;42916;54.346;18.562;2023-06-14T11:20:53;100728.00;;;26.18;35.90
57024;BME280;42916;54.346;18.562;2023-06-14T11:23:21;100727.20;;;26.38;35.00
57024;BME280;42916;54.346;18.562;2023-06-14T11:25:53;100728.14;;;26.37;34.90
57024;BME280;42916;54.346;18.562;2023-06-14T11:28:20;100727.45;;;26.30;34.88
57024;BME280;42916;54.346;18.562;2023-06-14T11:30:48;100732.36;;;26.20;35.19
57024;BME280;42916;54.346;18.562;2023-06-14T11:33:17;100730.30;;;26.04;34.45
57024;BME280;42916;54.346;18.562;2023-06-14T11:35:46;100731.31;;;26.04;34.54
57024;BME280;42916;54.346;18.562;2023-06-14T11:38:13;100731.40;;;26.18;34.77
57024;BME280;42916;54.346;18.562;2023-06-14T11:40:39;100724.91;;;26.42;34.80
57024;BME280;42916;54.346;18.562;2023-06-14T11:43:05;100726.77;;;26.62;34.88
57024;BME280;42916;54.346;18.562;2023-06-14T11:45:32;100730.30;;;26.60;34.59
57024;BME280;42916;54.346;18.562;2023-06-14T11:47:58;100727.95;;;26.67;34.80
57024;BME280;42916;54.346;18.562;2023-06-14T11:50:26;100720.73;;;26.86;34.62
57024;BME280;42916;54.346;18.562;2023-06-14T11:52:59;100721.39;;;27.15;34.80
57024;BME280;42916;54.346;18.562;2023-06-14T11:55:36;100724.41;;;26.93;34.23
57024;BME280;42916;54.346;18.562;2023-06-14T11:58:02;100718.74;;;26.74;34.96
57024;BME280;42916;54.346;18.562;2023-06-14T12:00:29;100721.73;;;26.76;35.43
57024;BME280;42916;54.346;18.562;2023-06-14T12:02:56;100714.88;;;27.00;34.96
57024;BME280;42916;54.346;18.562;2023-06-14T12:05:23;100714.75;;;27.49;34.16
57024;BME280;42916;54.346;18.562;2023-06-14T12:07:50;100712.56;;;27.55;33.83
57024;BME280;42916;54.346;18.562;2023-06-14T12:10:19;100712.24;;;28.00;34.03
57024;BME280;42916;54.346;18.562;2023-06-14T12:12:45;100711.17;;;28.14;32.93
57024;BME280;42916;54.346;18.562;2023-06-14T12:15:12;100711.15;;;27.99;32.86
57024;BME280;42916;54.346;18.562;2023-06-14T12:17:38;100710.71;;;27.38;33.13
57024;BME280;42916;54.346;18.562;2023-06-14T12:20:12;100704.50;;;26.97;34.11
57024;BME280;42916;54.346;18.562;2023-06-14T12:22:56;100704.53;;;26.62;34.74
57024;BME280;42916;54.346;18.562;2023-06-14T12:25:31;100705.45;;;26.50;35.06
57024;BME280;42916;54.346;18.562;2023-06-14T12:27:59;100708.33;;;26.53;34.90
57024;BME280;42916;54.346;18.562;2023-06-14T12:30:26;100707.77;;;26.58;32.77
57024;BME280;42916;54.346;18.562;2023-06-14T12:32:52;100703.95;;;26.47;32.92
57024;BME280;42916;54.346;18.562;2023-06-14T12:35:18;100703.27;;;26.74;33.58
57024;BME280;42916;54.346;18.562;2023-06-14T12:37:45;100702.69;;;27.04;33.55
57024;BME280;42916;54.346;18.562;2023-06-14T12:40:12;100704.02;;;27.29;33.47
57024;BME280;42916;54.346;18.562;2023-06-14T12:42:39;100708.15;;;27.40;33.26
57024;BME280;42916;54.346;18.562;2023-06-14T12:45:06;100705.54;;;27.55;33.16
57024;BME280;42916;54.346;18.562;2023-06-14T12:47:32;100704.79;;;27.57;33.12
57024;BME280;42916;54.346;18.562;2023-06-14T12:49:58;100705.98;;;27.46;32.89
57024;BME280;42916;54.346;18.562;2023-06-14T12:52:24;100704.55;;;27.24;32.49
57024;BME280;42916;54.346;18.562;2023-06-14T12:54:50;100704.05;;;27.14;33.11
57024;BME280;42916;54.346;18.562;2023-06-14T12:57:17;100705.95;;;26.79;32.97
57024;BME280;42916;54.346;18.562;2023-06-14T12:59:43;100709.71;;;26.51;33.25
57024;BME280;42916;54.346;18.562;2023-06-14T13:02:16;100702.86;;;26.31;33.69
57024;BME280;42916;54.346;18.562;2023-06-14T13:04:43;100702.98;;;26.29;34.75